createdAt,value
2022-09-14T00:02:44.261Z,33.10
2022-09-14T00:06:16.510Z,31.00
2022-09-14T00:09:55.767Z,28.40
2022-09-14T00:13:35.997Z,26.90
2022-09-14T00:17:17.352Z,30.10
2022-09-14T00:20:50.821Z,40.70
2022-09-14T00:24:32.109Z,47.30
2022-09-14T00:28:06.205Z,33.00
2022-09-14T00:31:44.545Z,40.20
2022-09-14T00:35:27.307Z,23.80
2022-09-14T00:39:00.966Z,40.10
2022-09-14T00:42:39.761Z,38.10
2022-09-14T00:46:22.619Z,31.70
2022-09-14T00:50:00.804Z,34.20
2022-09-14T00:53:31.719Z,37.30
2022-09-14T00:57:12.845Z,35.20
2022-09-14T01:00:53.557Z,28.00
2022-09-14T01:04:37.700Z,24.80
2022-09-14T01:08:13.916Z,29.60
2022-09-14T01:11:55.292Z,29.50
2022-09-14T01:16:06.776Z,28.60
2022-09-14T01:19:21.329Z,31.30
2022-09-14T01:23:11.792Z,32.10
2022-09-14T01:26:59.034Z,25.60
2022-09-14T01:30:43.647Z,33.80
2022-09-14T01:34:41.110Z,40.80
2022-09-14T01:38:38.202Z,34.60
2022-09-14T01:42:21.159Z,31.10
2022-09-14T01:46:16.380Z,23.20
2022-09-14T01:50:02.839Z,26.50
2022-09-14T01:54:01.979Z,38.80
2022-09-14T01:57:45.889Z,28.80
2022-09-14T02:01:31.156Z,42.40
2022-09-14T02:05:51.760Z,31.30
2022-09-14T02:09:31.513Z,26.70
2022-09-14T02:13:14.524Z,23.80
2022-09-14T02:16:46.895Z,33.90
2022-09-14T02:20:35.542Z,29.70
2022-09-14T02:24:14.465Z,24.70
2022-09-14T02:27:52.849Z,37.10
2022-09-14T02:31:33.541Z,31.30
2022-09-14T02:35:52.511Z,30.30
2022-09-14T02:39:43.318Z,33.70
2022-09-14T02:43:47.971Z,40.00
2022-09-14T02:47:44.949Z,25.30
2022-09-14T02:51:42.555Z,28.70
2022-09-14T02:55:24.774Z,38.70
2022-09-14T02:59:04.203Z,32.00
2022-09-14T03:02:43.460Z,35.60
2022-09-14T03:06:21.811Z,24.20
2022-09-14T03:09:59.470Z,31.70
2022-09-14T03:13:38.468Z,25.50
2022-09-14T03:17:18.693Z,29.50
2022-09-14T03:21:11.206Z,24.40
2022-09-14T03:24:51.112Z,26.70
2022-09-14T03:28:31.566Z,25.90
2022-09-14T03:32:08.988Z,33.40
2022-09-14T03:35:46.641Z,35.60
2022-09-14T03:39:25.469Z,30.00
2022-09-14T03:43:03.020Z,28.20
2022-09-14T03:46:44.369Z,34.20
2022-09-14T03:50:22.864Z,35.60
2022-09-14T03:54:01.325Z,24.60
2022-09-14T03:57:39.554Z,32.40
2022-09-14T04:01:20.088Z,25.90
2022-09-14T04:04:59.308Z,27.10
2022-09-14T04:08:39.785Z,25.10
2022-09-14T04:12:17.827Z,31.60
2022-09-14T04:15:58.163Z,33.40
2022-09-14T04:19:36.385Z,30.30
2022-09-14T04:23:13.761Z,24.80
2022-09-14T04:26:50.945Z,39.20
2022-09-14T04:30:28.670Z,30.90
2022-09-14T04:34:07.056Z,26.50
2022-09-14T04:37:45.125Z,32.10
2022-09-14T04:41:23.702Z,27.70
2022-09-14T04:45:02.816Z,30.50
2022-09-14T04:48:43.087Z,28.70
2022-09-14T04:52:21.601Z,23.60
2022-09-14T04:56:04.388Z,32.50
2022-09-14T04:59:42.672Z,33.50
2022-09-14T05:03:20.156Z,29.80
2022-09-14T05:06:58.029Z,29.30
2022-09-14T05:10:35.786Z,28.90
2022-09-14T05:14:14.382Z,31.70
2022-09-14T05:17:52.726Z,34.20
2022-09-14T05:21:33.113Z,28.60
2022-09-14T05:25:11.371Z,31.60
2022-09-14T05:28:54.687Z,36.60
2022-09-14T05:32:33.388Z,32.80
2022-09-14T05:36:11.413Z,30.90
2022-09-14T05:39:51.263Z,30.70
2022-09-14T05:43:30.267Z,37.60
2022-09-14T05:47:08.042Z,23.60
2022-09-14T05:50:46.633Z,30.80
2022-09-14T05:54:25.169Z,23.10
2022-09-14T05:58:03.714Z,26.70
2022-09-14T06:01:42.987Z,27.80
2022-09-14T06:05:23.498Z,30.10
2022-09-14T06:09:01.506Z,33.00
2022-09-14T06:12:39.742Z,25.50
2022-09-14T06:16:21.144Z,40.50
2022-09-14T06:20:04.456Z,24.70
2022-09-14T06:23:45.086Z,35.10
2022-09-14T06:27:23.984Z,30.80
2022-09-14T06:31:02.959Z,35.20
2022-09-14T06:34:40.857Z,29.60
2022-09-14T06:38:18.902Z,33.40
2022-09-14T06:41:56.544Z,27.20
2022-09-14T06:45:34.635Z,32.50
2022-09-14T06:49:15.732Z,28.40
2022-09-14T06:52:53.671Z,27.10
2022-09-14T06:56:42.207Z,22.10
2022-09-14T07:00:15.579Z,24.20
2022-09-14T07:03:54.409Z,23.50
2022-09-14T07:07:32.917Z,28.30
2022-09-14T07:11:15.529Z,23.70
2022-09-14T07:14:48.673Z,21.90
2022-09-14T07:18:27.598Z,32.80
2022-09-14T07:22:22.537Z,24.00
2022-09-14T07:26:01.082Z,23.90
2022-09-14T07:29:31.840Z,22.50
2022-09-14T07:33:06.028Z,19.90
2022-09-14T07:36:39.911Z,17.90
2022-09-14T07:40:21.749Z,17.90
2022-09-14T07:44:08.306Z,15.50
2022-09-14T07:47:40.251Z,15.90
2022-09-14T07:51:18.520Z,15.50
2022-09-14T07:54:56.858Z,12.20
2022-09-14T07:58:35.863Z,13.00
2022-09-14T08:02:14.050Z,22.10
2022-09-14T08:05:59.074Z,17.60
2022-09-14T08:09:39.193Z,11.20
2022-09-14T08:13:16.756Z,14.50
2022-09-14T08:16:55.481Z,16.10
2022-09-14T08:20:34.215Z,11.90
2022-09-14T08:24:17.719Z,20.80
2022-09-14T08:27:55.598Z,20.30
2022-09-14T08:31:37.594Z,12.70
2022-09-14T08:35:15.730Z,19.30
2022-09-14T08:38:55.941Z,11.30
2022-09-14T08:42:34.202Z,10.80
2022-09-14T08:46:36.754Z,8.90
2022-09-14T08:50:18.719Z,12.70
2022-09-14T08:53:58.723Z,12.00
2022-09-14T08:57:47.860Z,9.80
2022-09-14T09:01:34.014Z,11.50
2022-09-14T09:05:37.368Z,13.30
2022-09-14T09:09:18.320Z,12.20
2022-09-14T09:12:59.625Z,7.80
2022-09-14T09:16:38.702Z,12.40
2022-09-14T09:20:30.330Z,13.90
2022-09-14T09:24:17.886Z,11.50
2022-09-14T09:28:10.194Z,9.10
2022-09-14T09:31:53.687Z,15.00
2022-09-14T09:35:32.908Z,8.90
2022-09-14T09:39:10.398Z,14.60
2022-09-14T09:43:09.524Z,11.90
2022-09-14T09:47:00.005Z,7.20
2022-09-14T09:50:49.414Z,10.00
2022-09-14T09:54:31.167Z,10.10
2022-09-14T09:58:47.934Z,12.40
2022-09-14T10:02:26.455Z,5.80
2022-09-14T10:06:11.319Z,8.30
2022-09-14T10:10:03.094Z,6.10
2022-09-14T10:13:41.593Z,12.10
2022-09-14T10:17:23.406Z,10.00
2022-09-14T10:21:03.923Z,6.70
2022-09-14T10:25:01.985Z,10.10
2022-09-14T10:28:43.561Z,14.80
2022-09-14T10:32:25.010Z,17.30
2022-09-14T10:36:05.613Z,11.00
2022-09-14T10:40:08.437Z,13.40
2022-09-14T10:44:07.963Z,20.60
2022-09-14T10:48:00.949Z,20.10
2022-09-14T10:52:07.115Z,22.10
2022-09-14T10:55:59.917Z,21.20
2022-09-14T10:59:38.626Z,22.00
2022-09-14T11:03:27.717Z,23.00
2022-09-14T11:07:21.938Z,9.60
2022-09-14T11:11:20.683Z,17.90
2022-09-14T11:15:06.391Z,22.40
2022-09-14T11:19:03.053Z,9.80
2022-09-14T11:22:55.637Z,19.60
2022-09-14T11:26:42.068Z,19.30
2022-09-14T11:30:28.547Z,11.40
2022-09-14T11:34:28.305Z,10.70
2022-09-14T11:38:15.149Z,8.40
2022-09-14T11:41:59.472Z,9.80
2022-09-14T11:45:53.028Z,9.90
2022-09-14T11:49:59.082Z,13.70
2022-09-14T11:53:40.097Z,11.40
2022-09-14T11:57:37.695Z,14.70
2022-09-14T12:01:30.712Z,12.40
2022-09-14T12:05:09.717Z,10.10
2022-09-14T12:08:47.604Z,11.00
2022-09-14T12:12:30.877Z,11.40
2022-09-14T12:16:10.396Z,6.90
2022-09-14T12:19:50.862Z,4.50
2022-09-14T12:23:49.989Z,5.70
2022-09-14T12:27:31.694Z,11.80
2022-09-14T12:31:13.736Z,3.80
2022-09-14T12:35:30.236Z,10.90
2022-09-14T12:39:28.007Z,6.40
2022-09-14T12:43:34.161Z,6.90
2022-09-14T12:47:27.393Z,6.70
2022-09-14T12:51:05.883Z,5.90
2022-09-14T12:55:21.010Z,5.30
2022-09-14T12:58:46.130Z,7.00
2022-09-14T13:02:44.942Z,12.70
2022-09-14T13:06:24.603Z,5.50
2022-09-14T13:10:06.388Z,6.00
2022-09-14T13:13:45.105Z,6.80
2022-09-14T13:17:22.745Z,9.60
2022-09-14T13:21:04.497Z,8.70
2022-09-14T13:24:47.798Z,5.30
2022-09-14T13:28:30.090Z,8.30
2022-09-14T13:32:18.784Z,4.20
2022-09-14T13:36:02.276Z,5.10
2022-09-14T13:39:41.859Z,8.00
2022-09-14T13:43:21.380Z,6.60
2022-09-14T13:47:02.920Z,6.60
2022-09-14T13:50:45.564Z,6.00
2022-09-14T13:54:30.414Z,4.90
2022-09-14T13:58:11.874Z,7.50
2022-09-14T14:01:59.831Z,5.90
2022-09-14T14:05:42.445Z,8.00
2022-09-14T14:09:20.033Z,7.00
2022-09-14T14:12:57.994Z,8.30
2022-09-14T14:16:36.987Z,3.00
2022-09-14T14:20:29.125Z,5.80
2022-09-14T14:24:28.728Z,7.70
2022-09-14T14:28:17.244Z,5.30
2022-09-14T14:31:57.854Z,3.80
2022-09-14T14:35:35.685Z,7.10
2022-09-14T14:39:13.004Z,8.10
2022-09-14T14:42:51.930Z,9.00
2022-09-14T14:46:31.275Z,6.40
2022-09-14T14:50:17.151Z,7.00
2022-09-14T14:53:54.496Z,4.00
2022-09-14T14:57:32.469Z,5.40
2022-09-14T15:01:10.588Z,3.20
2022-09-14T15:04:49.085Z,5.70
2022-09-14T15:08:26.284Z,5.20
2022-09-14T15:12:03.784Z,5.00
2022-09-14T15:15:42.616Z,9.20
2022-09-14T15:19:20.238Z,5.40
2022-09-14T15:22:57.193Z,3.80
2022-09-14T15:26:35.744Z,5.40
2022-09-14T15:30:15.245Z,3.10
2022-09-14T15:33:53.092Z,3.80
2022-09-14T15:37:31.961Z,8.20
2022-09-14T15:41:12.170Z,11.30
2022-09-14T15:44:51.965Z,5.90
2022-09-14T15:48:29.758Z,4.90
2022-09-14T15:52:07.707Z,6.90
2022-09-14T15:55:46.783Z,3.70
2022-09-14T15:59:24.495Z,4.00
2022-09-14T16:03:02.842Z,9.50
2022-09-14T16:06:41.473Z,7.20
2022-09-14T16:10:23.578Z,6.80
2022-09-14T16:13:57.587Z,8.90
2022-09-14T16:17:35.652Z,8.70
2022-09-14T16:21:17.204Z,6.10
2022-09-14T16:24:55.394Z,6.70
2022-09-14T16:28:33.137Z,7.40
2022-09-14T16:32:10.235Z,8.20
2022-09-14T16:35:49.016Z,8.80
2022-09-14T16:39:28.102Z,10.10
2022-09-14T16:43:05.734Z,9.10
2022-09-14T16:46:44.169Z,7.10
2022-09-14T16:50:21.538Z,10.80
2022-09-14T16:54:00.200Z,7.40
2022-09-14T16:57:38.537Z,8.90
2022-09-14T17:01:26.045Z,10.00
2022-09-14T17:05:04.118Z,10.10
2022-09-14T17:08:43.917Z,8.10
2022-09-14T17:12:24.228Z,10.50
2022-09-14T17:16:04.887Z,6.50
2022-09-14T17:19:44.495Z,7.60
2022-09-14T17:23:23.271Z,15.00
2022-09-14T17:27:01.543Z,10.70
2022-09-14T17:30:39.259Z,7.20
2022-09-14T17:34:17.121Z,5.80
2022-09-14T17:37:55.444Z,11.00
2022-09-14T17:41:33.314Z,10.00
2022-09-14T17:45:11.203Z,9.90
2022-09-14T17:48:50.995Z,9.30
2022-09-14T17:52:30.529Z,10.10
2022-09-14T17:56:10.828Z,6.10
2022-09-14T17:59:49.597Z,6.80
2022-09-14T18:03:27.171Z,8.70
2022-09-14T18:07:05.890Z,6.80
2022-09-14T18:10:43.960Z,9.80
2022-09-14T18:14:21.597Z,11.80
2022-09-14T18:17:59.345Z,10.50
2022-09-14T18:21:38.906Z,8.60
2022-09-14T18:25:16.506Z,8.70
2022-09-14T18:28:55.070Z,10.50
2022-09-14T18:32:33.972Z,11.00
2022-09-14T18:36:11.363Z,8.20
2022-09-14T18:39:50.252Z,9.00
2022-09-14T18:43:27.374Z,8.40
2022-09-14T18:47:05.408Z,10.20
2022-09-14T18:50:43.334Z,9.80
2022-09-14T18:54:26.744Z,9.60
2022-09-14T18:58:06.658Z,9.00
2022-09-14T19:01:44.321Z,7.90
2022-09-14T19:05:24.202Z,9.90
2022-09-14T19:09:02.137Z,9.20
2022-09-14T19:12:41.577Z,8.50
2022-09-14T19:16:20.958Z,11.00
2022-09-14T19:20:00.069Z,8.70
2022-09-14T19:23:39.612Z,9.30
2022-09-14T19:27:17.722Z,10.00
2022-09-14T19:30:54.875Z,12.20
2022-09-14T19:34:33.654Z,9.70
2022-09-14T19:38:11.337Z,10.10
2022-09-14T19:41:48.884Z,9.50
2022-09-14T19:45:26.636Z,11.60
2022-09-14T19:49:16.370Z,7.00
2022-09-14T19:52:55.471Z,9.00
2022-09-14T19:56:34.469Z,12.20
2022-09-14T20:00:17.573Z,12.90
2022-09-14T20:03:56.117Z,10.10
2022-09-14T20:07:34.680Z,8.30
2022-09-14T20:11:19.087Z,10.60
2022-09-14T20:14:58.681Z,8.50
2022-09-14T20:18:36.262Z,8.40
2022-09-14T20:22:16.735Z,10.00
2022-09-14T20:25:54.852Z,9.30
2022-09-14T20:29:34.344Z,11.70
2022-09-14T20:33:12.200Z,11.70
2022-09-14T20:36:52.142Z,10.10
2022-09-14T20:40:30.300Z,7.30
2022-09-14T20:44:08.719Z,11.60
2022-09-14T20:47:45.803Z,10.90
2022-09-14T20:51:25.273Z,11.40
2022-09-14T20:55:02.808Z,5.10
2022-09-14T20:58:41.466Z,5.60
2022-09-14T21:02:19.582Z,9.80
2022-09-14T21:06:00.585Z,10.20
2022-09-14T21:09:39.898Z,12.50
2022-09-14T21:13:17.025Z,8.60
2022-09-14T21:16:55.636Z,10.80
2022-09-14T21:20:37.337Z,11.40
2022-09-14T21:24:16.530Z,8.90
2022-09-14T21:27:54.955Z,9.70
2022-09-14T21:31:34.489Z,7.90
2022-09-14T21:35:11.818Z,10.80
2022-09-14T21:38:53.678Z,7.90
2022-09-14T21:42:32.257Z,10.50
2022-09-14T21:46:10.488Z,10.60
2022-09-14T21:49:48.284Z,9.80
2022-09-14T21:53:25.628Z,12.50
2022-09-14T21:57:03.339Z,10.30
2022-09-14T22:00:41.306Z,9.20
2022-09-14T22:04:22.222Z,8.10
2022-09-14T22:07:59.764Z,9.00
2022-09-14T22:11:38.318Z,6.30
2022-09-14T22:15:15.987Z,7.50
2022-09-14T22:18:56.194Z,7.60
2022-09-14T22:22:33.461Z,11.00
2022-09-14T22:26:12.129Z,10.10
2022-09-14T22:29:51.399Z,12.50
2022-09-14T22:33:30.273Z,10.70
2022-09-14T22:37:08.461Z,12.40
2022-09-14T22:40:46.544Z,8.30
2022-09-14T22:44:23.562Z,9.90
2022-09-14T22:48:02.699Z,7.90
2022-09-14T22:51:40.212Z,10.20
2022-09-14T22:55:18.256Z,7.20
2022-09-14T22:58:57.233Z,7.60
2022-09-14T23:02:35.984Z,6.70
2022-09-14T23:06:15.065Z,7.40
2022-09-14T23:09:53.589Z,8.70
2022-09-14T23:13:31.429Z,20.20
2022-09-14T23:17:09.211Z,12.20
2022-09-14T23:20:46.932Z,10.60
2022-09-14T23:24:24.797Z,12.70
2022-09-14T23:28:04.778Z,7.80
2022-09-14T23:31:43.559Z,7.30
2022-09-14T23:35:21.193Z,7.40
2022-09-14T23:38:59.021Z,8.70
2022-09-14T23:42:36.304Z,9.70
2022-09-14T23:46:14.437Z,6.50
2022-09-14T23:49:51.858Z,6.80
2022-09-14T23:53:29.751Z,8.20
2022-09-14T23:57:07.281Z,9.40
